sensor_id;sensor_type;location;lat;lon;timestamp;pressure;altitude;pressure_sealevel;temperature;humidity
58975;BME280;44751;52.236;5.178;2023-12-20T00:00:38;101392.66;;;14.26;100.00
58975;BME280;44751;52.236;5.178;2023-12-20T00:03:04;101392.53;;;13.97;100.00
58975;BME280;44751;52.236;5.178;2023-12-20T00:05:31;101392.94;;;14.16;100.00
58975;BME280;44751;52.236;5.178;2023-12-20T00:07:58;101393.34;;;14.13;100.00
58975;BME280;44751;52.236;5.178;2023-12-20T00:10:24;101390.44;;;13.99;100.00
58975;BME280;44751;52.236;5.178;2023-12-20T00:12:50;101385.59;;;14.10;100.00
58975;BME280;44751;52.236;5.178;2023-12-20T00:15:16;101384.97;;;13.77;100.00
58975;BME280;44751;52.236;5.178;2023-12-20T00:17:42;101384.84;;;13.55;100.00
58975;BME280;44751;52.236;5.178;2023-12-20T00:20:08;101367.72;;;13.85;100.00
58975;BME280;44751;52.236;5.178;2023-12-20T00:22:35;101368.13;;;13.82;100.00
58975;BME280;44751;52.236;5.178;2023-12-20T00:25:01;101382.25;;;13.62;100.00
58975;BME280;44751;52.236;5.178;2023-12-20T00:27:27;101388.13;;;13.66;100.00
58975;BME280;44751;52.236;5.178;2023-12-20T00:29:54;101390.19;;;13.64;100.00
58975;BME280;44751;52.236;5.178;2023-12-20T00:32:21;101380.59;;;14.13;100.00
58975;BME280;44751;52.236;5.178;2023-12-20T00:34:47;101383.41;;;14.20;100.00
58975;BME280;44751;52.236;5.178;2023-12-20T00:37:13;101386.19;;;13.75;100.00
58975;BME280;44751;52.236;5.178;2023-12-20T00:39:39;101379.66;;;13.30;100.00
58975;BME280;44751;52.236;5.178;2023-12-20T00:42:06;101376.06;;;13.53;100.00
58975;BME280;44751;52.236;5.178;2023-12-20T00:44:32;101377.75;;;13.69;100.00
58975;BME280;44751;52.236;5.178;2023-12-20T00:46:58;101379.69;;;14.06;100.00
58975;BME280;44751;52.236;5.178;2023-12-20T00:49:24;101386.34;;;13.88;100.00
58975;BME280;44751;52.236;5.178;2023-12-20T00:51:51;101383.91;;;13.93;100.00
58975;BME280;44751;52.236;5.178;2023-12-20T00:54:17;101375.50;;;13.88;100.00
58975;BME280;44751;52.236;5.178;2023-12-20T00:56:44;101366.69;;;13.41;100.00
58975;BME280;44751;52.236;5.178;2023-12-20T00:59:10;101366.41;;;13.96;100.00
58975;BME280;44751;52.236;5.178;2023-12-20T01:01:36;101366.63;;;13.64;100.00
58975;BME280;44751;52.236;5.178;2023-12-20T01:04:03;101354.56;;;13.67;100.00
58975;BME280;44751;52.236;5.178;2023-12-20T01:06:30;101362.25;;;13.63;100.00
58975;BME280;44751;52.236;5.178;2023-12-20T01:08:56;101368.97;;;13.82;100.00
58975;BME280;44751;52.236;5.178;2023-12-20T01:11:22;101376.63;;;13.79;100.00
58975;BME280;44751;52.236;5.178;2023-12-20T01:13:49;101374.53;;;13.36;100.00
58975;BME280;44751;52.236;5.178;2023-12-20T01:16:15;101389.91;;;14.04;100.00
58975;BME280;44751;52.236;5.178;2023-12-20T01:18:41;101390.34;;;14.07;100.00
58975;BME280;44751;52.236;5.178;2023-12-20T01:21:07;101384.16;;;14.14;100.00
58975;BME280;44751;52.236;5.178;2023-12-20T01:23:34;101379.50;;;14.07;100.00
58975;BME280;44751;52.236;5.178;2023-12-20T01:26:00;101384.81;;;14.16;100.00
58975;BME280;44751;52.236;5.178;2023-12-20T01:28:27;101372.78;;;14.40;100.00
58975;BME280;44751;52.236;5.178;2023-12-20T01:30:53;101374.16;;;14.51;100.00
58975;BME280;44751;52.236;5.178;2023-12-20T01:33:20;101365.63;;;14.32;100.00
58975;BME280;44751;52.236;5.178;2023-12-20T01:35:46;101371.09;;;13.57;100.00
58975;BME280;44751;52.236;5.178;2023-12-20T01:38:12;101369.59;;;13.69;100.00
58975;BME280;44751;52.236;5.178;2023-12-20T01:40:38;101371.47;;;13.99;100.00
58975;BME280;44751;52.236;5.178;2023-12-20T01:43:07;101370.34;;;13.93;100.00
58975;BME280;44751;52.236;5.178;2023-12-20T01:45:33;101372.16;;;13.86;100.00
58975;BME280;44751;52.236;5.178;2023-12-20T01:48:00;101361.19;;;13.94;100.00
58975;BME280;44751;52.236;5.178;2023-12-20T01:50:27;101365.50;;;13.89;100.00
58975;BME280;44751;52.236;5.178;2023-12-20T01:52:55;101373.63;;;14.04;100.00
58975;BME280;44751;52.236;5.178;2023-12-20T01:55:22;101362.97;;;13.87;100.00
58975;BME280;44751;52.236;5.178;2023-12-20T01:57:49;101365.44;;;14.19;100.00
58975;BME280;44751;52.236;5.178;2023-12-20T02:00:15;101362.59;;;13.60;100.00
58975;BME280;44751;52.236;5.178;2023-12-20T02:02:42;101361.19;;;14.31;100.00
58975;BME280;44751;52.236;5.178;2023-12-20T02:05:09;101364.50;;;14.12;100.00
58975;BME280;44751;52.236;5.178;2023-12-20T02:07:35;101364.66;;;13.88;100.00
58975;BME280;44751;52.236;5.178;2023-12-20T02:10:02;101357.69;;;14.16;100.00
58975;BME280;44751;52.236;5.178;2023-12-20T02:12:29;101358.84;;;14.28;100.00
58975;BME280;44751;52.236;5.178;2023-12-20T02:14:55;101359.06;;;14.27;100.00
58975;BME280;44751;52.236;5.178;2023-12-20T02:17:22;101358.72;;;14.52;100.00
58975;BME280;44751;52.236;5.178;2023-12-20T02:19:49;101354.38;;;15.01;100.00
58975;BME280;44751;52.236;5.178;2023-12-20T02:22:15;101350.56;;;14.95;100.00
58975;BME280;44751;52.236;5.178;2023-12-20T02:24:42;101346.88;;;14.59;100.00
58975;BME280;44751;52.236;5.178;2023-12-20T02:27:08;101360.22;;;14.98;100.00
58975;BME280;44751;52.236;5.178;2023-12-20T02:29:35;101353.06;;;14.75;100.00
58975;BME280;44751;52.236;5.178;2023-12-20T02:32:01;101347.28;;;14.78;100.00
58975;BME280;44751;52.236;5.178;2023-12-20T02:34:27;101346.81;;;14.31;100.00
58975;BME280;44751;52.236;5.178;2023-12-20T02:36:54;101344.53;;;14.56;100.00
58975;BME280;44751;52.236;5.178;2023-12-20T02:39:20;101347.69;;;14.38;100.00
58975;BME280;44751;52.236;5.178;2023-12-20T02:41:47;101349.06;;;14.49;100.00
58975;BME280;44751;52.236;5.178;2023-12-20T02:44:13;101352.69;;;15.00;100.00
58975;BME280;44751;52.236;5.178;2023-12-20T02:46:40;101341.75;;;14.50;100.00
58975;BME280;44751;52.236;5.178;2023-12-20T02:49:06;101345.19;;;15.02;100.00
58975;BME280;44751;52.236;5.178;2023-12-20T02:51:32;101339.69;;;14.52;100.00
58975;BME280;44751;52.236;5.178;2023-12-20T02:53:59;101337.75;;;14.24;100.00
58975;BME280;44751;52.236;5.178;2023-12-20T02:56:25;101322.69;;;14.43;100.00
58975;BME280;44751;52.236;5.178;2023-12-20T02:58:51;101330.78;;;13.99;100.00
58975;BME280;44751;52.236;5.178;2023-12-20T03:01:19;101321.19;;;14.18;100.00
58975;BME280;44751;52.236;5.178;2023-12-20T03:03:46;101315.03;;;14.10;100.00
58975;BME280;44751;52.236;5.178;2023-12-20T03:06:15;101314.13;;;14.24;100.00
58975;BME280;44751;52.236;5.178;2023-12-20T03:08:41;101314.94;;;14.40;100.00
58975;BME280;44751;52.236;5.178;2023-12-20T03:11:07;101317.19;;;14.36;100.00
58975;BME280;44751;52.236;5.178;2023-12-20T03:13:34;101320.84;;;14.28;100.00
58975;BME280;44751;52.236;5.178;2023-12-20T03:16:00;101315.22;;;14.08;100.00
58975;BME280;44751;52.236;5.178;2023-12-20T03:18:26;101304.03;;;15.05;100.00
58975;BME280;44751;52.236;5.178;2023-12-20T03:20:53;101295.50;;;14.80;100.00
58975;BME280;44751;52.236;5.178;2023-12-20T03:23:20;101308.28;;;14.64;100.00
58975;BME280;44751;52.236;5.178;2023-12-20T03:25:46;101304.03;;;14.55;100.00
58975;BME280;44751;52.236;5.178;2023-12-20T03:28:14;101306.47;;;14.50;100.00
58975;BME280;44751;52.236;5.178;2023-12-20T03:30:40;101300.47;;;14.32;100.00
58975;BME280;44751;52.236;5.178;2023-12-20T03:33:07;101299.38;;;14.27;100.00
58975;BME280;44751;52.236;5.178;2023-12-20T03:35:33;101289.06;;;14.22;100.00
58975;BME280;44751;52.236;5.178;2023-12-20T03:37:59;101311.56;;;14.38;100.00
58975;BME280;44751;52.236;5.178;2023-12-20T03:40:26;101301.53;;;14.16;100.00
58975;BME280;44751;52.236;5.178;2023-12-20T03:42:52;101314.56;;;14.65;100.00
58975;BME280;44751;52.236;5.178;2023-12-20T03:45:18;101319.34;;;14.04;100.00
58975;BME280;44751;52.236;5.178;2023-12-20T03:47:44;101318.09;;;13.69;100.00
58975;BME280;44751;52.236;5.178;2023-12-20T03:50:11;101331.47;;;14.23;100.00
58975;BME280;44751;52.236;5.178;2023-12-20T03:52:37;101328.00;;;14.29;100.00
58975;BME280;44751;52.236;5.178;2023-12-20T03:55:04;101335.88;;;13.72;100.00
58975;BME280;44751;52.236;5.178;2023-12-20T03:57:30;101333.31;;;14.81;100.00
58975;BME280;44751;52.236;5.178;2023-12-20T03:59:56;101309.28;;;15.42;100.00
58975;BME280;44751;52.236;5.178;2023-12-20T04:02:23;101318.91;;;15.09;100.00
58975;BME280;44751;52.236;5.178;2023-12-20T04:04:49;101319.31;;;15.06;100.00
58975;BME280;44751;52.236;5.178;2023-12-20T04:07:15;101318.50;;;15.48;100.00
58975;BME280;44751;52.236;5.178;2023-12-20T04:09:41;101300.22;;;15.35;100.00
58975;BME280;44751;52.236;5.178;2023-12-20T04:12:08;101301.34;;;15.47;100.00
58975;BME280;44751;52.236;5.178;2023-12-20T04:14:34;101311.25;;;14.91;100.00
58975;BME280;44751;52.236;5.178;2023-12-20T04:17:00;101318.06;;;15.09;100.00
58975;BME280;44751;52.236;5.178;2023-12-20T04:19:26;101310.09;;;14.79;100.00
58975;BME280;44751;52.236;5.178;2023-12-20T04:21:53;101300.88;;;14.14;100.00
58975;BME280;44751;52.236;5.178;2023-12-20T04:24:19;101300.72;;;14.38;100.00
58975;BME280;44751;52.236;5.178;2023-12-20T04:26:45;101297.88;;;14.46;100.00
58975;BME280;44751;52.236;5.178;2023-12-20T04:29:12;101291.34;;;14.40;100.00
58975;BME280;44751;52.236;5.178;2023-12-20T04:31:38;101298.19;;;14.58;100.00
58975;BME280;44751;52.236;5.178;2023-12-20T04:34:04;101294.88;;;14.63;100.00
58975;BME280;44751;52.236;5.178;2023-12-20T04:36:30;101294.63;;;14.79;100.00
58975;BME280;44751;52.236;5.178;2023-12-20T04:38:57;101298.06;;;14.23;100.00
58975;BME280;44751;52.236;5.178;2023-12-20T04:41:24;101293.53;;;14.95;100.00
58975;BME280;44751;52.236;5.178;2023-12-20T04:43:51;101297.06;;;14.96;100.00
58975;BME280;44751;52.236;5.178;2023-12-20T04:46:18;101294.38;;;14.52;100.00
58975;BME280;44751;52.236;5.178;2023-12-20T04:48:44;101285.06;;;14.62;100.00
58975;BME280;44751;52.236;5.178;2023-12-20T04:51:10;101289.31;;;15.28;100.00
58975;BME280;44751;52.236;5.178;2023-12-20T04:53:37;101296.16;;;14.89;100.00
58975;BME280;44751;52.236;5.178;2023-12-20T04:56:03;101285.09;;;15.54;100.00
58975;BME280;44751;52.236;5.178;2023-12-20T04:58:29;101282.06;;;14.56;100.00
58975;BME280;44751;52.236;5.178;2023-12-20T05:00:56;101285.72;;;15.21;100.00
58975;BME280;44751;52.236;5.178;2023-12-20T05:03:22;101282.16;;;14.63;100.00
58975;BME280;44751;52.236;5.178;2023-12-20T05:05:48;101290.09;;;14.87;100.00
58975;BME280;44751;52.236;5.178;2023-12-20T05:08:14;101273.88;;;14.50;100.00
58975;BME280;44751;52.236;5.178;2023-12-20T05:10:41;101287.22;;;15.23;100.00
58975;BME280;44751;52.236;5.178;2023-12-20T05:13:07;101281.69;;;15.45;100.00
58975;BME280;44751;52.236;5.178;2023-12-20T05:15:33;101289.81;;;15.39;100.00
58975;BME280;44751;52.236;5.178;2023-12-20T05:18:00;101289.78;;;15.32;100.00
58975;BME280;44751;52.236;5.178;2023-12-20T05:20:26;101290.25;;;15.42;100.00
58975;BME280;44751;52.236;5.178;2023-12-20T05:22:52;101300.00;;;15.30;100.00
58975;BME280;44751;52.236;5.178;2023-12-20T05:25:18;101292.75;;;15.93;100.00
58975;BME280;44751;52.236;5.178;2023-12-20T05:27:45;101293.31;;;15.74;100.00
58975;BME280;44751;52.236;5.178;2023-12-20T05:30:11;101283.22;;;15.61;100.00
58975;BME280;44751;52.236;5.178;2023-12-20T05:32:38;101272.78;;;15.23;100.00
58975;BME280;44751;52.236;5.178;2023-12-20T05:35:04;101275.47;;;14.88;100.00
58975;BME280;44751;52.236;5.178;2023-12-20T05:37:30;101281.06;;;15.08;100.00
58975;BME280;44751;52.236;5.178;2023-12-20T05:39:56;101277.00;;;15.32;100.00
58975;BME280;44751;52.236;5.178;2023-12-20T05:42:23;101275.63;;;15.08;100.00
58975;BME280;44751;52.236;5.178;2023-12-20T05:44:49;101288.41;;;15.14;100.00
58975;BME280;44751;52.236;5.178;2023-12-20T05:47:15;101282.22;;;15.27;100.00
58975;BME280;44751;52.236;5.178;2023-12-20T05:49:42;101279.09;;;15.30;100.00
58975;BME280;44751;52.236;5.178;2023-12-20T05:52:08;101275.94;;;15.75;100.00
58975;BME280;44751;52.236;5.178;2023-12-20T05:54:35;101282.81;;;15.65;100.00
58975;BME280;44751;52.236;5.178;2023-12-20T05:57:01;101280.28;;;15.56;100.00
58975;BME280;44751;52.236;5.178;2023-12-20T05:59:27;101280.44;;;15.13;100.00
58975;BME280;44751;52.236;5.178;2023-12-20T06:01:53;101289.72;;;14.90;100.00
58975;BME280;44751;52.236;5.178;2023-12-20T06:04:20;101279.81;;;15.10;100.00
58975;BME280;44751;52.236;5.178;2023-12-20T06:06:46;101279.56;;;15.41;100.00
58975;BME280;44751;52.236;5.178;2023-12-20T06:09:12;101283.22;;;15.61;100.00
58975;BME280;44751;52.236;5.178;2023-12-20T06:11:40;101275.09;;;15.26;100.00
58975;BME280;44751;52.236;5.178;2023-12-20T06:14:06;101274.31;;;15.39;100.00
58975;BME280;44751;52.236;5.178;2023-12-20T06:16:32;101273.00;;;14.93;100.00
58975;BME280;44751;52.236;5.178;2023-12-20T06:18:58;101269.50;;;14.49;100.00
58975;BME280;44751;52.236;5.178;2023-12-20T06:21:25;101261.88;;;14.59;100.00
58975;BME280;44751;52.236;5.178;2023-12-20T06:23:51;101261.59;;;14.54;100.00
58975;BME280;44751;52.236;5.178;2023-12-20T06:26:17;101271.88;;;14.58;100.00
58975;BME280;44751;52.236;5.178;2023-12-20T06:28:44;101275.31;;;14.96;100.00
58975;BME280;44751;52.236;5.178;2023-12-20T06:31:10;101277.19;;;14.45;100.00
58975;BME280;44751;52.236;5.178;2023-12-20T06:33:36;101275.94;;;15.27;100.00
58975;BME280;44751;52.236;5.178;2023-12-20T06:36:03;101275.97;;;14.76;100.00
58975;BME280;44751;52.236;5.178;2023-12-20T06:38:29;101278.03;;;14.67;100.00
58975;BME280;44751;52.236;5.178;2023-12-20T06:40:55;101275.44;;;14.59;100.00
58975;BME280;44751;52.236;5.178;2023-12-20T06:43:22;101275.81;;;14.34;100.00
58975;BME280;44751;52.236;5.178;2023-12-20T06:45:48;101264.81;;;14.64;100.00
58975;BME280;44751;52.236;5.178;2023-12-20T06:48:15;101265.09;;;14.48;100.00
58975;BME280;44751;52.236;5.178;2023-12-20T06:50:42;101262.94;;;14.87;100.00
58975;BME280;44751;52.236;5.178;2023-12-20T06:53:08;101260.31;;;15.35;100.00
58975;BME280;44751;52.236;5.178;2023-12-20T06:55:35;101259.22;;;14.94;100.00
58975;BME280;44751;52.236;5.178;2023-12-20T06:58:02;101256.53;;;14.72;100.00
58975;BME280;44751;52.236;5.178;2023-12-20T07:00:29;101278.06;;;14.52;100.00
58975;BME280;44751;52.236;5.178;2023-12-20T07:02:55;101265.25;;;14.68;100.00
58975;BME280;44751;52.236;5.178;2023-12-20T07:05:21;101258.41;;;14.72;100.00
58975;BME280;44751;52.236;5.178;2023-12-20T07:07:47;101269.47;;;15.28;100.00
58975;BME280;44751;52.236;5.178;2023-12-20T07:10:14;101258.69;;;14.55;100.00
58975;BME280;44751;52.236;5.178;2023-12-20T07:12:40;101266.84;;;14.77;100.00
58975;BME280;44751;52.236;5.178;2023-12-20T07:15:06;101257.53;;;14.93;100.00
58975;BME280;44751;52.236;5.178;2023-12-20T07:17:33;101250.63;;;15.19;100.00
58975;BME280;44751;52.236;5.178;2023-12-20T07:20:00;101251.44;;;14.63;100.00
58975;BME280;44751;52.236;5.178;2023-12-20T07:22:28;101236.88;;;14.70;100.00
58975;BME280;44751;52.236;5.178;2023-12-20T07:24:58;101237.66;;;14.64;100.00
58975;BME280;44751;52.236;5.178;2023-12-20T07:27:24;101241.66;;;14.97;100.00
58975;BME280;44751;52.236;5.178;2023-12-20T07:29:50;101235.03;;;15.00;100.00
58975;BME280;44751;52.236;5.178;2023-12-20T07:32:17;101229.97;;;14.96;100.00
58975;BME280;44751;52.236;5.178;2023-12-20T07:34:43;101230.75;;;14.62;100.00
58975;BME280;44751;52.236;5.178;2023-12-20T07:37:10;101229.53;;;14.64;100.00
58975;BME280;44751;52.236;5.178;2023-12-20T07:39:39;101238.53;;;14.43;100.00
58975;BME280;44751;52.236;5.178;2023-12-20T07:42:06;101250.44;;;14.92;100.00
58975;BME280;44751;52.236;5.178;2023-12-20T07:44:32;101252.53;;;14.68;100.00
58975;BME280;44751;52.236;5.178;2023-12-20T07:46:59;101248.84;;;15.05;100.00
58975;BME280;44751;52.236;5.178;2023-12-20T07:49:29;101255.69;;;14.94;100.00
58975;BME280;44751;52.236;5.178;2023-12-20T07:51:56;101256.13;;;15.33;100.00
58975;BME280;44751;52.236;5.178;2023-12-20T07:54:23;101253.53;;;14.89;100.00
58975;BME280;44751;52.236;5.178;2023-12-20T07:56:49;101263.69;;;15.44;100.00
58975;BME280;44751;52.236;5.178;2023-12-20T07:59:15;101259.94;;;15.10;100.00
58975;BME280;44751;52.236;5.178;2023-12-20T08:01:45;101270.22;;;15.15;100.00
58975;BME280;44751;52.236;5.178;2023-12-20T08:04:11;101279.72;;;14.97;100.00
58975;BME280;44751;52.236;5.178;2023-12-20T08:06:38;101280.63;;;15.40;100.00
58975;BME280;44751;52.236;5.178;2023-12-20T08:09:05;101275.81;;;14.56;100.00
58975;BME280;44751;52.236;5.178;2023-12-20T08:11:31;101273.50;;;15.03;100.00
58975;BME280;44751;52.236;5.178;2023-12-20T08:13:57;101277.25;;;15.02;100.00
58975;BME280;44751;52.236;5.178;2023-12-20T08:16:23;101270.03;;;15.58;100.00
58975;BME280;44751;52.236;5.178;2023-12-20T08:18:53;101267.63;;;15.00;100.00
58975;BME280;44751;52.236;5.178;2023-12-20T08:21:19;101274.66;;;14.87;100.00
58975;BME280;44751;52.236;5.178;2023-12-20T08:23:47;101280.44;;;15.48;100.00
58975;BME280;44751;52.236;5.178;2023-12-20T08:26:14;101271.78;;;15.31;100.00
58975;BME280;44751;52.236;5.178;2023-12-20T08:28:47;101267.78;;;14.91;100.00
58975;BME280;44751;52.236;5.178;2023-12-20T08:31:14;101257.03;;;15.54;100.00
58975;BME280;44751;52.236;5.178;2023-12-20T08:33:41;101259.41;;;14.64;100.00
58975;BME280;44751;52.236;5.178;2023-12-20T08:36:08;101248.53;;;15.21;100.00
58975;BME280;44751;52.236;5.178;2023-12-20T08:38:34;101265.06;;;15.27;100.00
58975;BME280;44751;52.236;5.178;2023-12-20T08:41:03;101251.53;;;14.98;100.00
58975;BME280;44751;52.236;5.178;2023-12-20T08:43:38;101254.59;;;14.88;100.00
58975;BME280;44751;52.236;5.178;2023-12-20T08:46:05;101262.97;;;15.22;100.00
58975;BME280;44751;52.236;5.178;2023-12-20T08:48:32;101261.41;;;15.48;100.00
58975;BME280;44751;52.236;5.178;2023-12-20T08:50:58;101263.59;;;15.73;100.00
58975;BME280;44751;52.236;5.178;2023-12-20T08:53:24;101261.84;;;15.09;100.00
58975;BME280;44751;52.236;5.178;2023-12-20T08:55:53;101265.25;;;16.23;100.00
58975;BME280;44751;52.236;5.178;2023-12-20T08:58:19;101259.34;;;16.26;100.00
58975;BME280;44751;52.236;5.178;2023-12-20T09:00:46;101266.00;;;15.47;100.00
58975;BME280;44751;52.236;5.178;2023-12-20T09:03:12;101264.13;;;15.13;100.00
58975;BME280;44751;52.236;5.178;2023-12-20T09:05:40;101273.16;;;14.63;100.00
58975;BME280;44751;52.236;5.178;2023-12-20T09:08:07;101260.22;;;14.87;100.00
58975;BME280;44751;52.236;5.178;2023-12-20T09:10:35;101260.59;;;15.12;100.00
58975;BME280;44751;52.236;5.178;2023-12-20T09:13:01;101268.22;;;14.95;100.00
58975;BME280;44751;52.236;5.178;2023-12-20T09:15:29;101258.41;;;14.94;100.00
58975;BME280;44751;52.236;5.178;2023-12-20T09:18:06;101259.28;;;15.01;100.00
58975;BME280;44751;52.236;5.178;2023-12-20T09:20:33;101251.69;;;14.68;100.00
58975;BME280;44751;52.236;5.178;2023-12-20T09:22:59;101256.41;;;14.81;100.00
58975;BME280;44751;52.236;5.178;2023-12-20T09:25:26;101252.50;;;15.26;100.00
58975;BME280;44751;52.236;5.178;2023-12-20T09:27:52;101251.88;;;15.66;100.00
58975;BME280;44751;52.236;5.178;2023-12-20T09:30:22;101256.88;;;15.62;100.00
58975;BME280;44751;52.236;5.178;2023-12-20T09:32:49;101258.28;;;15.51;100.00
58975;BME280;44751;52.236;5.178;2023-12-20T09:35:15;101265.88;;;15.62;100.00
58975;BME280;44751;52.236;5.178;2023-12-20T09:37:41;101258.13;;;15.59;100.00
58975;BME280;44751;52.236;5.178;2023-12-20T09:40:12;101258.91;;;16.02;100.00
58975;BME280;44751;52.236;5.178;2023-12-20T09:42:50;101269.56;;;16.04;100.00
58975;BME280;44751;52.236;5.178;2023-12-20T09:45:20;101268.66;;;15.83;100.00
58975;BME280;44751;52.236;5.178;2023-12-20T09:47:51;101264.63;;;16.48;100.00
58975;BME280;44751;52.236;5.178;2023-12-20T09:50:21;101256.16;;;15.95;100.00
58975;BME280;44751;52.236;5.178;2023-12-20T09:52:51;101266.66;;;16.12;100.00
58975;BME280;44751;52.236;5.178;2023-12-20T09:55:18;101263.78;;;16.20;100.00
58975;BME280;44751;52.236;5.178;2023-12-20T09:57:47;101269.16;;;16.07;100.00
58975;BME280;44751;52.236;5.178;2023-12-20T10:00:14;101281.56;;;16.30;100.00
58975;BME280;44751;52.236;5.178;2023-12-20T10:05:39;101273.22;;;15.69;100.00
58975;BME280;44751;52.236;5.178;2023-12-20T10:08:09;101274.47;;;15.73;100.00
58975;BME280;44751;52.236;5.178;2023-12-20T10:10:35;101270.34;;;15.84;100.00
58975;BME280;44751;52.236;5.178;2023-12-20T10:13:02;101278.41;;;16.26;100.00
58975;BME280;44751;52.236;5.178;2023-12-20T10:15:33;101275.72;;;15.64;100.00
58975;BME280;44751;52.236;5.178;2023-12-20T10:17:59;101287.84;;;14.97;100.00
58975;BME280;44751;52.236;5.178;2023-12-20T10:20:26;101278.81;;;15.18;100.00
58975;BME280;44751;52.236;5.178;2023-12-20T10:22:54;101270.53;;;14.98;100.00
58975;BME280;44751;52.236;5.178;2023-12-20T10:25:25;101266.66;;;16.05;100.00
58975;BME280;44751;52.236;5.178;2023-12-20T10:30:36;101262.75;;;15.23;100.00
58975;BME280;44751;52.236;5.178;2023-12-20T10:33:03;101251.69;;;14.90;100.00
58975;BME280;44751;52.236;5.178;2023-12-20T10:35:31;101258.28;;;15.51;100.00
58975;BME280;44751;52.236;5.178;2023-12-20T10:37:57;101259.03;;;15.87;100.00
58975;BME280;44751;52.236;5.178;2023-12-20T10:40:26;101257.22;;;16.01;100.00
58975;BME280;44751;52.236;5.178;2023-12-20T10:42:54;101255.16;;;16.03;100.00
58975;BME280;44751;52.236;5.178;2023-12-20T10:45:26;101259.44;;;15.77;100.00
58975;BME280;44751;52.236;5.178;2023-12-20T10:47:52;101251.91;;;15.72;100.00
58975;BME280;44751;52.236;5.178;2023-12-20T10:50:19;101246.28;;;15.81;100.00
58975;BME280;44751;52.236;5.178;2023-12-20T10:52:45;101252.25;;;15.56;100.00
58975;BME280;44751;52.236;5.178;2023-12-20T10:55:13;101238.75;;;15.90;100.00
58975;BME280;44751;52.236;5.178;2023-12-20T10:57:41;101238.50;;;15.71;100.00
58975;BME280;44751;52.236;5.178;2023-12-20T11:00:08;101235.22;;;15.33;100.00
58975;BME280;44751;52.236;5.178;2023-12-20T11:02:39;101245.13;;;16.24;100.00
58975;BME280;44751;52.236;5.178;2023-12-20T11:07:40;101235.94;;;16.45;100.00
58975;BME280;44751;52.236;5.178;2023-12-20T11:10:14;101240.50;;;16.92;100.00
58975;BME280;44751;52.236;5.178;2023-12-20T11:12:47;101236.13;;;16.17;100.00
58975;BME280;44751;52.236;5.178;2023-12-20T11:15:16;101231.19;;;15.78;100.00
58975;BME280;44751;52.236;5.178;2023-12-20T11:17:44;101239.06;;;16.29;100.00
58975;BME280;44751;52.236;5.178;2023-12-20T11:20:11;101224.72;;;15.93;100.00
58975;BME280;44751;52.236;5.178;2023-12-20T11:22:37;101219.97;;;16.08;100.00
58975;BME280;44751;52.236;5.178;2023-12-20T11:27:33;101212.59;;;15.88;100.00
58975;BME280;44751;52.236;5.178;2023-12-20T11:30:00;101244.66;;;15.38;100.00
58975;BME280;44751;52.236;5.178;2023-12-20T11:32:31;101224.81;;;16.06;100.00
58975;BME280;44751;52.236;5.178;2023-12-20T11:34:58;101229.41;;;16.19;100.00
58975;BME280;44751;52.236;5.178;2023-12-20T11:37:28;101223.75;;;16.14;100.00
58975;BME280;44751;52.236;5.178;2023-12-20T11:39:55;101214.72;;;16.00;100.00
58975;BME280;44751;52.236;5.178;2023-12-20T11:42:22;101214.94;;;15.36;100.00
58975;BME280;44751;52.236;5.178;2023-12-20T11:44:48;101216.19;;;16.03;100.00
58975;BME280;44751;52.236;5.178;2023-12-20T11:47:16;101198.00;;;16.03;100.00
58975;BME280;44751;52.236;5.178;2023-12-20T11:49:44;101196.91;;;15.91;100.00
58975;BME280;44751;52.236;5.178;2023-12-20T11:52:11;101195.28;;;16.71;100.00
58975;BME280;44751;52.236;5.178;2023-12-20T11:54:38;101185.84;;;16.53;100.00
58975;BME280;44751;52.236;5.178;2023-12-20T11:57:04;101179.78;;;16.58;100.00
58975;BME280;44751;52.236;5.178;2023-12-20T11:59:31;101191.50;;;16.04;100.00
58975;BME280;44751;52.236;5.178;2023-12-20T12:01:58;101186.00;;;15.84;100.00
58975;BME280;44751;52.236;5.178;2023-12-20T12:04:28;101187.75;;;16.39;100.00
58975;BME280;44751;52.236;5.178;2023-12-20T12:06:54;101196.28;;;15.95;100.00
58975;BME280;44751;52.236;5.178;2023-12-20T12:09:20;101202.28;;;15.77;100.00
58975;BME280;44751;52.236;5.178;2023-12-20T12:11:46;101195.94;;;16.52;100.00
58975;BME280;44751;52.236;5.178;2023-12-20T12:14:13;101202.19;;;16.06;100.00
58975;BME280;44751;52.236;5.178;2023-12-20T12:16:41;101198.81;;;15.97;100.00
58975;BME280;44751;52.236;5.178;2023-12-20T12:19:24;101199.91;;;16.36;100.00
58975;BME280;44751;52.236;5.178;2023-12-20T12:21:51;101194.66;;;16.21;100.00
58975;BME280;44751;52.236;5.178;2023-12-20T12:24:21;101182.06;;;16.13;100.00
58975;BME280;44751;52.236;5.178;2023-12-20T12:26:50;101174.34;;;16.17;100.00
58975;BME280;44751;52.236;5.178;2023-12-20T12:29:17;101166.78;;;16.19;100.00
58975;BME280;44751;52.236;5.178;2023-12-20T12:31:43;101157.13;;;16.57;100.00
58975;BME280;44751;52.236;5.178;2023-12-20T12:34:12;101163.03;;;16.13;100.00
58975;BME280;44751;52.236;5.178;2023-12-20T12:36:49;101158.44;;;16.41;100.00
58975;BME280;44751;52.236;5.178;2023-12-20T12:39:17;101159.25;;;16.08;100.00
58975;BME280;44751;52.236;5.178;2023-12-20T12:41:43;101156.97;;;16.25;100.00
58975;BME280;44751;52.236;5.178;2023-12-20T12:44:12;101153.38;;;16.65;100.00
58975;BME280;44751;52.236;5.178;2023-12-20T12:46:38;101160.47;;;17.39;100.00
58975;BME280;44751;52.236;5.178;2023-12-20T12:49:05;101150.91;;;17.16;100.00